Airfield :
LOGIN :

Register | Disclaimer

   EN    FR    IT 

 










Legend :    VFR   Marginal VFR   IFR   Intensive IFR   Very Intensive IFR
Visi :
Ceiling :
>= 8 km
>= 3000ft
5 to 8 km
1000 to 3000 ft
1500m to 5 km
500 to 1000 ft
800 to 1500m
200 to 500 ft
< 800m
< 200 ft
Symbols :   Thunderstorms  Fog  Heavy snow  Heavy precipitations  Wind > 20 kt
SIGMETs :     Misc.  Thunderstorms  Icing  Turbulence  Mountain Waves  Volcanic Ashes







- Airport Elevation : 82 ft
- IATA code : ALG


DAAG - Alger Houari Boumedienne

CURRENT METAR :
  • 112300Z 18003KT 3000 BR FEW020 07/07 Q1023

EXPIRED METARs :
  • 112230Z 14002KT 0900 R09/P2000N FG FEW020 07/07 Q1023
  • 112200Z 00000KT 3000 BR FEW020 06/06 Q1022
  • 112130Z 26003KT 3000 BR FEW020 07/07 Q1022
  • 112100Z 29003KT 3000 BR FEW020 08/08 Q1022
  • 112030Z 00000KT 3000 BR FEW013 08/08 Q1022

TAF TAF DAAG
Valid from the 11 at 18:00 until the 12 at 18:00 UTC


111700Z 1118/1218 VRB02KT 6000 FEW026
TEMPO 1119/1206 3000 BR BKN015
PROB40
TEMPO 1120/1204 0800 FG
PROB30
TEMPO 1121/1203 0200 FG BKN010
BECMG 1209/1212 30010KT
No reported NOTAMs for that airfield.



MET'MAP, your aeronautical weather chart ! - Copyright ORBIFLY December 2007 - Disclaimer

ORBIFLY MET'MAP TEAM :

Programming & Development : Alexandra Zaïnal
Concept & Development : Baudouin d'Aumeries
Co-Development & Prog : Marc-Olivier Méhu
Technical & hardware support : Manuel Goepfert

Contact : metmap@orbifly.com




SOURCES & CREDITS :

   NOAA